Time;durP1;ratioP1;P1;durP2;ratioP2;P2;SDS_P1;SDS_P2;PMS_P1;PMS_P2;Temp;Humidity;BMP_temperature;BMP_pressure;BME280_temperature;BME280_humidity;BME280_pressure;Samples;Min_cycle;Max_cycle;Signal;HPM_P1;HPM_P2
2022/06/16 00:01:53;;;;;;;5.30;2.80;;;;;;;10.13;76.51;96137.40;1787046;80;21042;-65
2022/06/16 00:04:22;;;;;;;5.00;2.70;;;;;;;10.14;76.23;96140.91;1787368;80;21015;-66
2022/06/16 00:06:49;;;;;;;4.83;3.40;;;;;;;10.07;76.08;96140.06;1787084;80;21006;-66
2022/06/16 00:09:16;;;;;;;3.37;3.00;;;;;;;10.05;76.25;96144.92;1787186;80;21031;-65
2022/06/16 00:11:43;;;;;;;7.20;3.03;;;;;;;10.12;76.33;96149.27;1787129;80;20976;-65
2022/06/16 00:14:10;;;;;;;2.83;2.57;;;;;;;10.05;76.48;96137.02;1786955;80;20975;-66
2022/06/16 00:16:37;;;;;;;6.27;2.63;;;;;;;9.99;75.96;96139.26;1786825;80;21047;-65
2022/06/16 00:19:04;;;;;;;5.87;3.13;;;;;;;10.01;75.71;96145.84;1787302;80;20947;-65
2022/06/16 00:21:31;;;;;;;5.17;3.20;;;;;;;9.99;76.02;96140.58;1786898;80;21011;-65
2022/06/16 00:23:58;;;;;;;5.13;2.73;;;;;;;10.00;75.62;96140.12;1794051;80;21051;-65
2022/06/16 00:26:26;;;;;;;4.40;2.53;;;;;;;9.93;75.71;96137.55;1795461;80;21034;-65
2022/06/16 00:28:53;;;;;;;6.57;3.40;;;;;;;9.84;76.70;96132.33;1795177;80;21449;-65
2022/06/16 00:31:23;;;;;;;6.43;3.03;;;;;;;9.86;77.38;96136.29;1795832;80;21418;-65
2022/06/16 00:33:51;;;;;;;4.47;3.00;;;;;;;9.86;77.04;96133.66;1795749;80;20974;-65
2022/06/16 00:36:17;;;;;;;5.57;2.90;;;;;;;9.81;76.65;96138.95;1795168;80;21015;-65
2022/06/16 00:38:45;;;;;;;5.10;2.60;;;;;;;9.82;76.84;96136.73;1795485;80;21006;-65
2022/06/16 00:41:13;;;;;;;4.33;2.80;;;;;;;9.86;76.89;96137.16;1795410;80;21053;-65
2022/06/16 00:43:40;;;;;;;4.00;2.67;;;;;;;9.86;77.30;96138.47;1795102;80;21010;-65
2022/06/16 00:46:12;;;;;;;5.53;3.10;;;;;;;9.86;76.93;96133.20;1795399;80;21006;-65
2022/06/16 00:48:55;;;;;;;5.23;2.93;;;;;;;9.84;77.11;96132.33;1795565;80;20991;-66
2022/06/16 00:51:35;;;;;;;3.42;2.55;;;;;;;9.86;77.37;96133.66;1795517;80;21042;-66
2022/06/16 00:54:22;;;;;;;4.63;3.23;;;;;;;9.84;77.06;96131.47;1795689;80;20995;-66
2022/06/16 00:56:53;;;;;;;3.90;2.60;;;;;;;9.84;76.55;96127.52;1795406;80;21496;-65
2022/06/16 00:59:21;;;;;;;5.33;2.83;;;;;;;9.82;76.33;96120.05;1795298;80;21058;-65
2022/06/16 01:01:50;;;;;;;5.30;3.43;;;;;;;9.71;75.94;96118.37;1795460;80;21440;-65
2022/06/16 01:07:06;;;;;;;4.57;3.13;;;;;;;9.72;76.26;96119.23;1795465;80;21461;-65
2022/06/16 01:09:34;;;;;;;4.63;3.37;;;;;;;9.69;77.25;96114.00;1795057;80;21022;-65
2022/06/16 01:15:49;;;;;;;4.03;3.20;;;;;;;9.68;76.95;96111.81;1795455;80;20995;-65
2022/06/16 01:18:57;;;;;;;3.43;2.60;;;;;;;9.65;76.95;96115.80;1795249;80;21066;-65
2022/06/16 01:21:50;;;;;;;7.17;3.20;;;;;;;9.54;76.90;96117.60;1795528;80;21041;-66
2022/06/16 01:24:42;;;;;;;4.80;2.80;;;;;;;9.45;77.17;96119.86;1787130;80;21095;-65
2022/06/16 01:27:26;;;;;;;3.80;2.60;;;;;;;9.38;78.07;96122.09;1786916;80;20999;-65
2022/06/16 01:30:15;;;;;;;4.20;2.80;;;;;;;9.29;78.43;96116.86;1786771;80;21038;-65
2022/06/16 01:32:59;;;;;;;4.93;2.80;;;;;;;9.29;77.18;96115.09;1787075;80;20975;-65
2022/06/16 01:35:42;;;;;;;4.07;2.87;;;;;;;9.21;76.94;96116.91;1787110;80;21055;-65
2022/06/16 01:38:20;;;;;;;4.27;2.27;;;;;;;9.12;77.36;96112.13;1787135;80;20995;-65
2022/06/16 01:41:01;;;;;;;3.90;2.63;;;;;;;9.07;79.09;96113.45;1787372;80;21066;-65
2022/06/16 01:43:45;;;;;;;3.57;2.77;;;;;;;9.16;78.18;96115.19;1766679;80;20990;-66
2022/06/16 01:46:21;;;;;;;;;;;;;;;9.12;78.41;96116.94;1786605;80;21521;-65
2022/06/16 01:48:54;;;;;;;3.23;2.63;;;;;;;9.16;78.84;96115.19;1786334;80;20402;-65
2022/06/16 01:51:35;;;;;;;5.57;3.00;;;;;;;9.14;78.74;96123.52;1787231;80;21027;-66
2022/06/16 01:54:19;;;;;;;5.17;2.90;;;;;;;9.16;78.40;96123.95;1787362;80;20979;-66
2022/06/16 01:57:01;;;;;;;5.90;2.60;;;;;;;9.15;78.43;96122.63;1787250;80;21010;-66
2022/06/16 01:59:33;;;;;;;4.03;2.70;;;;;;;9.23;78.87;96115.59;1786976;80;21006;-65
2022/06/16 02:02:06;;;;;;;4.13;2.50;;;;;;;9.21;78.82;96117.35;1785810;80;21026;-65
2022/06/16 02:04:43;;;;;;;7.23;2.80;;;;;;;9.23;78.57;96115.59;1786781;80;21520;-65
2022/06/16 02:07:16;;;;;;;5.70;2.70;;;;;;;9.19;78.17;96117.34;1787130;80;21492;-66
2022/06/16 02:09:48;;;;;;;3.45;2.70;;;;;;;9.14;78.05;96111.23;1787367;80;21034;-66
2022/06/16 02:13:06;;;;;;;3.80;3.03;;;;;;;9.18;78.13;96114.30;1786892;80;21062;-65
2022/06/16 02:14:52;;;;;;;4.47;2.30;;;;;;;9.24;77.62;96112.94;1766584;80;21453;-65
2022/06/16 02:17:21;;;;;;;4.27;2.60;;;;;;;9.19;77.36;96115.16;1784712;80;21038;-65
2022/06/16 02:19:47;;;;;;;4.47;2.77;;;;;;;9.07;78.22;96116.98;1787200;80;21054;-65
2022/06/16 02:22:14;;;;;;;4.97;3.13;;;;;;;9.01;78.62;96114.36;1787280;80;20967;-65
2022/06/16 02:24:41;;;;;;;4.40;2.97;;;;;;;9.01;78.32;96116.99;1794822;80;21087;-65
2022/06/16 02:27:07;;;;;;;3.23;2.70;;;;;;;9.06;78.26;96111.71;1795573;80;21468;-65
2022/06/16 02:29:38;;;;;;;3.17;2.27;;;;;;;9.05;78.16;96113.48;1795383;80;21006;-65
2022/06/16 02:32:49;;;;;;;3.70;3.10;;;;;;;9.02;78.10;96110.87;1795298;80;21525;-66
2022/06/16 02:35:44;;;;;;;4.13;2.37;;;;;;;9.04;77.92;96114.34;1750730;80;21141;-66
2022/06/16 02:38:25;;;;;;;4.23;2.90;;;;;;;9.06;78.01;96119.61;1795577;80;21038;-66
2022/06/16 02:41:14;;;;;;;4.10;2.13;;;;;;;9.02;77.95;96115.23;1795381;80;21026;-65
2022/06/16 02:43:52;;;;;;;5.00;2.90;;;;;;;8.93;77.57;96110.02;1754243;80;21026;-65
2022/06/16 02:46:36;;;;;;;4.90;2.83;;;;;;;8.87;78.10;96110.93;1795676;80;20991;-65
2022/06/16 02:49:33;;;;;;;3.33;2.63;;;;;;;8.87;77.73;96108.30;1795493;80;21014;-65
2022/06/16 02:52:20;;;;;;;3.93;3.53;;;;;;;8.91;77.94;96117.05;1795203;80;20979;-65
2022/06/16 02:55:05;;;;;;;4.10;2.83;;;;;;;8.92;78.40;96113.52;1795312;80;21026;-65
2022/06/16 02:57:52;;;;;;;4.83;3.83;;;;;;;8.86;78.72;96121.00;1791011;80;21002;-65
2022/06/16 03:00:31;;;;;;;3.90;3.00;;;;;;;8.85;78.87;96122.77;1794006;80;21584;-66
2022/06/16 03:02:58;;;;;;;4.43;3.23;;;;;;;8.76;78.61;96119.28;1794188;80;21019;-65
2022/06/16 03:05:25;;;;;;;4.23;3.37;;;;;;;8.70;78.79;96124.13;1795470;80;20998;-65
2022/06/16 03:07:51;;;;;;;7.90;2.97;;;;;;;8.74;79.05;96121.91;1795419;80;20990;-65
2022/06/16 03:13:06;;;;;;;3.13;2.73;;;;;;;8.75;79.96;96135.96;1795658;80;21087;-65
2022/06/16 03:15:32;;;;;;;6.03;3.67;;;;;;;8.72;80.28;96121.06;1764592;80;20962;-65
2022/06/16 03:17:59;;;;;;;3.93;3.00;;;;;;;8.78;79.66;96122.34;1795204;80;21050;-66
2022/06/16 03:20:26;;;;;;;4.83;3.23;;;;;;;8.75;80.07;96128.94;1795782;80;21074;-65
2022/06/16 03:22:52;;;;;;;5.23;2.97;;;;;;;8.78;80.26;96118.40;1794806;80;21073;-66
2022/06/16 03:25:19;;;;;;;3.73;2.93;;;;;;;8.87;80.98;96117.06;1787012;80;21026;-65
2022/06/16 03:27:46;;;;;;;5.70;3.50;;;;;;;9.01;80.92;96116.99;1787039;80;21059;-65
2022/06/16 03:30:13;;;;;;;5.67;3.40;;;;;;;9.11;80.52;96120.47;1786875;80;20987;-65
2022/06/16 03:32:42;;;;;;;5.10;3.20;;;;;;;9.08;79.89;96114.77;1787109;80;21066;-65
2022/06/16 03:35:10;;;;;;;4.77;3.13;;;;;;;9.08;80.06;96109.51;1787158;80;21034;-65
2022/06/16 03:37:40;;;;;;;3.87;2.73;;;;;;;9.16;80.66;96114.73;1787056;80;21058;-66
2022/06/16 03:40:11;;;;;;;3.77;2.80;;;;;;;9.31;80.74;96112.02;1787137;80;20995;-66
2022/06/16 03:42:38;;;;;;;5.27;3.03;;;;;;;9.48;81.08;96110.62;1787194;80;21011;-66
2022/06/16 03:45:06;;;;;;;7.30;3.70;;;;;;;9.63;80.89;96104.38;1786890;80;21046;-66
2022/06/16 03:47:33;;;;;;;5.77;3.87;;;;;;;9.83;80.51;96105.56;1787338;80;21488;-66
2022/06/16 03:50:01;;;;;;;5.37;3.80;;;;;;;10.00;80.06;96100.58;1787064;80;21048;-65
2022/06/16 03:52:29;;;;;;;8.93;4.90;;;;;;;10.18;79.80;96101.31;1785133;80;21648;-65
2022/06/16 03:54:56;;;;;;;7.80;4.10;;;;;;;10.32;78.53;96095.06;1787077;80;21086;-65
2022/06/16 03:57:22;;;;;;;10.43;4.17;;;;;;;10.48;78.59;96092.72;1787177;80;21031;-66
2022/06/16 03:59:49;;;;;;;9.73;4.53;;;;;;;10.61;77.69;96093.01;1786841;80;21007;-65
2022/06/16 04:02:31;;;;;;;6.80;3.83;;;;;;;10.67;78.06;96097.34;1721390;80;20999;-66
2022/06/16 04:05:01;;;;;;;5.33;3.53;;;;;;;10.83;77.94;96088.38;1787345;80;21007;-65
2022/06/16 04:07:28;;;;;;;5.77;3.77;;;;;;;11.00;76.95;96088.60;1787044;80;21473;-66
2022/06/16 04:10:06;;;;;;;6.63;3.90;;;;;;;11.15;76.85;96089.72;1784901;80;21023;-66
2022/06/16 04:12:34;;;;;;;6.50;4.00;;;;;;;11.28;76.50;96089.11;1787077;80;21015;-65
2022/06/16 04:15:01;;;;;;;5.17;4.03;;;;;;;11.43;76.67;96087.58;1786496;80;21079;-65
2022/06/16 04:17:29;;;;;;;6.60;3.87;;;;;;;11.59;76.38;96084.72;1787226;80;21003;-66
2022/06/16 04:20:12;;;;;;;7.10;4.27;;;;;;;11.66;75.60;96085.92;1786451;80;20987;-65
2022/06/16 04:22:42;;;;;;;5.37;4.03;;;;;;;11.79;75.57;96088.38;1785279;80;21043;-66
2022/06/16 04:25:15;;;;;;;5.63;3.77;;;;;;;11.89;75.32;96079.44;1793378;80;20995;-66
2022/06/16 04:27:44;;;;;;;7.23;3.70;;;;;;;11.99;75.05;96085.00;1795318;80;21539;-65
2022/06/16 04:30:15;;;;;;;9.23;4.30;;;;;;;12.01;74.82;96079.25;1764359;80;21010;-65
2022/06/16 04:32:43;;;;;;;6.03;4.20;;;;;;;12.08;75.14;96076.92;1764388;80;20983;-65
2022/06/16 04:35:11;;;;;;;5.17;3.80;;;;;;;12.15;74.69;96078.16;1795314;80;21022;-65
2022/06/16 04:37:39;;;;;;;6.93;4.30;;;;;;;12.26;74.75;96073.55;1793402;80;21010;-65
2022/06/16 04:40:10;;;;;;;11.30;3.87;;;;;;;12.32;74.87;96078.30;1795482;80;20990;-65
2022/06/16 04:42:37;;;;;;;5.63;3.73;;;;;;;12.42;74.74;96071.49;1795537;80;21070;-65
2022/06/16 04:45:05;;;;;;;6.67;3.87;;;;;;;12.52;74.48;96071.74;1795298;80;20967;-65
2022/06/16 04:47:32;;;;;;;4.13;3.73;;;;;;;12.64;74.29;96069.33;1795359;80;21088;-65
2022/06/16 04:50:00;;;;;;;4.13;3.23;;;;;;;12.75;74.10;96064.69;1795257;80;21067;-66
2022/06/16 04:52:27;;;;;;;6.37;4.05;;;;;;;12.89;73.81;96074.56;1795462;80;20959;-66
2022/06/16 04:54:54;;;;;;;9.40;4.30;;;;;;;13.03;73.49;96071.65;1795368;80;21039;-66
2022/06/16 04:57:40;;;;;;;5.37;3.43;;;;;;;13.17;73.40;96068.23;1795133;80;21002;-65
2022/06/16 05:00:18;;;;;;;4.20;3.52;;;;;;;13.33;73.27;96063.97;1762512;80;21003;-65
2022/06/16 05:02:47;;;;;;;4.50;3.40;;;;;;;13.47;73.09;96059.70;1792128;80;21091;-66
2022/06/16 05:05:24;;;;;;;5.92;3.60;;;;;;;13.60;73.08;96061.16;1791009;80;21481;-66
2022/06/16 05:08:02;;;;;;;6.40;3.27;;;;;;;13.72;72.33;96068.83;1791969;80;21506;-65
2022/06/16 05:10:44;;;;;;;3.77;3.42;;;;;;;13.83;72.33;96063.27;1793941;80;21486;-65
2022/06/16 05:13:29;;;;;;;5.65;3.37;;;;;;;13.98;72.07;96064.69;1795575;80;21106;-65
2022/06/16 05:16:14;;;;;;;3.90;3.17;;;;;;;14.10;71.09;96067.03;1795602;80;20995;-65
2022/06/16 05:19:00;;;;;;;4.60;2.95;;;;;;;14.22;71.04;96057.45;1795388;80;21496;-66
2022/06/16 05:21:40;;;;;;;4.80;3.10;;;;;;;14.37;70.60;96068.59;1794914;80;21061;-66
2022/06/16 05:24:09;;;;;;;3.40;2.90;;;;;;;14.53;70.43;96054.45;1779380;80;21557;-66
2022/06/16 05:26:54;;;;;;;6.55;2.72;;;;;;;14.67;70.32;96053.20;1787497;80;20991;-65
2022/06/16 05:29:32;;;;;;;4.17;2.85;;;;;;;14.85;69.83;96054.47;1689067;85;21070;-66
2022/06/16 05:32:13;;;;;;;4.25;3.12;;;;;;;15.00;69.39;96053.17;1786626;80;21475;-65
2022/06/16 05:34:44;;;;;;;6.08;2.60;;;;;;;15.17;69.73;96051.80;1782327;80;21513;-65
2022/06/16 05:37:13;;;;;;;5.62;2.98;;;;;;;15.29;68.29;96048.78;1786000;80;20994;-65
2022/06/16 05:39:58;;;;;;;4.75;2.95;;;;;;;15.43;68.24;96052.37;1786988;80;21047;-65
2022/06/16 05:42:43;;;;;;;7.12;2.95;;;;;;;15.62;68.06;96045.55;1787282;80;21465;-65
2022/06/16 05:45:14;;;;;;;5.62;3.05;;;;;;;15.78;67.88;96049.98;1786692;80;21015;-65
2022/06/16 05:47:53;;;;;;;4.85;2.77;;;;;;;15.96;67.79;96046.72;1787106;80;20960;-65
2022/06/16 05:50:22;;;;;;;4.75;2.92;;;;;;;16.11;67.23;96040.49;1787260;80;20975;-65
2022/06/16 05:52:49;;;;;;;4.03;2.62;;;;;;;16.29;66.71;96043.00;1787188;80;20937;-65
2022/06/16 05:55:17;;;;;;;3.10;2.72;;;;;;;16.43;66.51;96040.27;1786225;80;21015;-65
2022/06/16 05:57:44;;;;;;;5.05;2.50;;;;;;;16.58;65.30;96039.31;1787108;80;21042;-65
2022/06/16 06:00:14;;;;;;;4.47;2.75;;;;;;;16.73;65.21;96037.90;1786879;80;21015;-65
2022/06/16 06:02:42;;;;;;;4.22;3.02;;;;;;;16.82;64.32;96031.81;1784317;80;21009;-65
2022/06/16 06:05:11;;;;;;;3.27;2.73;;;;;;;16.99;64.59;96032.55;1787225;80;21457;-65
2022/06/16 06:18:41;;;;;;;3.98;2.83;;;;;;;17.73;61.97;96033.25;1787263;80;21453;-65
2022/06/16 06:21:08;;;;;;;4.12;2.55;;;;;;;17.94;61.96;96033.34;1786800;80;20983;-65
2022/06/16 06:23:35;;;;;;;4.53;2.40;;;;;;;18.10;61.87;96038.48;1786991;80;21010;-66
2022/06/16 06:26:01;;;;;;;3.98;2.70;;;;;;;18.27;61.96;96038.23;1787331;80;21458;-65
2022/06/16 06:28:28;;;;;;;2.55;2.30;;;;;;;18.41;59.88;96025.64;1787032;80;21000;-66
2022/06/16 06:30:56;;;;;;;4.12;2.47;;;;;;;18.56;58.99;96039.69;1787084;80;21513;-66
2022/06/16 06:33:23;;;;;;;6.25;2.52;;;;;;;18.67;59.35;96033.86;1787062;80;20976;-66
2022/06/16 06:35:49;;;;;;;6.65;2.72;;;;;;;18.81;58.66;96034.17;1786751;80;21083;-65
2022/06/16 06:38:16;;;;;;;3.98;2.50;;;;;;;18.92;57.85;96035.89;1787464;80;21019;-66
2022/06/16 06:40:43;;;;;;;4.05;2.60;;;;;;;19.09;58.56;96038.30;1786606;80;21094;-66
2022/06/16 06:43:10;;;;;;;3.83;2.50;;;;;;;19.22;56.34;96030.09;1787291;80;21003;-66
2022/06/16 06:45:37;;;;;;;2.67;2.10;;;;;;;19.35;57.23;96031.30;1787034;80;21019;-66
2022/06/16 06:48:07;;;;;;;4.70;1.95;;;;;;;19.53;54.21;96030.02;1786939;80;21007;-66
2022/06/16 06:50:40;;;;;;;2.65;1.70;;;;;;;19.68;51.75;96029.34;1787138;80;20999;-66
2022/06/16 06:53:09;;;;;;;3.20;1.82;;;;;;;19.85;50.53;96024.50;1787216;80;21003;-66
2022/06/16 06:55:42;;;;;;;3.72;1.80;;;;;;;20.03;49.16;96028.09;1787123;80;21536;-65
2022/06/16 06:58:17;;;;;;;2.60;2.15;;;;;;;20.20;48.62;96025.93;1787346;80;21019;-66
2022/06/16 07:00:43;;;;;;;2.35;1.50;;;;;;;20.40;48.27;96020.91;1786443;80;21022;-66
2022/06/16 07:03:11;;;;;;;1.90;1.55;;;;;;;20.59;48.40;96021.75;1786926;80;20991;-65
2022/06/16 07:05:39;;;;;;;2.27;1.70;;;;;;;20.73;47.03;96020.55;1787477;80;20960;-66
2022/06/16 07:08:06;;;;;;;2.22;1.75;;;;;;;20.88;43.66;96018.02;1787354;80;20999;-66
2022/06/16 07:10:33;;;;;;;1.80;1.70;;;;;;;21.02;41.69;96014.63;1787081;80;21019;-66
2022/06/16 07:12:59;;;;;;;3.75;1.70;;;;;;;21.11;40.59;96012.77;1787285;80;20963;-66
2022/06/16 07:15:26;;;;;;;4.70;1.55;;;;;;;21.18;39.39;96015.52;1786987;80;20998;-66
2022/06/16 07:17:53;;;;;;;2.80;1.77;;;;;;;21.33;42.25;96015.16;1786925;80;21050;-66
2022/06/16 07:20:20;;;;;;;2.42;1.75;;;;;;;21.51;40.59;96014.18;1786978;80;21103;-66
2022/06/16 07:22:48;;;;;;;1.72;1.60;;;;;;;21.70;41.90;96011.84;1787089;80;21022;-66
2022/06/16 07:25:16;;;;;;;4.90;1.90;;;;;;;21.86;40.30;96007.80;1787047;80;21037;-66
2022/06/16 07:27:43;;;;;;;4.03;1.70;;;;;;;21.95;39.45;96012.19;1787069;80;21034;-66
2022/06/16 07:30:14;;;;;;;2.12;1.50;;;;;;;21.96;39.06;96011.22;1786871;80;21493;-66
2022/06/16 07:32:42;;;;;;;2.72;1.60;;;;;;;21.77;40.17;96007.83;1787351;80;21011;-66
2022/06/16 07:35:13;;;;;;;2.00;1.62;;;;;;;21.56;40.49;96017.96;1787172;80;20980;-66
2022/06/16 07:37:40;;;;;;;3.25;1.70;;;;;;;21.44;41.83;96018.15;1786978;80;21513;-66
2022/06/16 07:40:09;;;;;;;3.50;2.00;;;;;;;21.55;43.08;96009.05;1787362;80;21039;-66
2022/06/16 07:42:36;;;;;;;3.15;1.70;;;;;;;21.87;42.46;96001.46;1787186;80;21346;-66
2022/06/16 07:45:04;;;;;;;5.92;2.22;;;;;;;22.18;41.63;96000.10;1787033;80;20973;-66
2022/06/16 07:47:31;;;;;;;3.40;1.72;;;;;;;22.41;41.75;95990.72;1787147;80;20971;-66
2022/06/16 07:50:01;;;;;;;3.15;1.50;;;;;;;22.33;39.38;95997.52;1787146;80;21496;-66
2022/06/16 07:52:28;;;;;;;2.45;1.98;;;;;;;22.11;38.83;96005.92;1787038;80;21011;-66
2022/06/16 07:54:54;;;;;;;1.62;1.50;;;;;;;22.07;39.96;96008.39;1787497;80;20967;-66
2022/06/16 07:57:22;;;;;;;2.55;1.50;;;;;;;22.28;40.19;96002.30;1787233;80;21094;-66
2022/06/16 07:59:55;;;;;;;2.05;1.70;;;;;;;22.58;39.32;95995.55;1786694;80;21026;-66
2022/06/16 08:02:21;;;;;;;;;;;;;;;22.88;38.77;95995.53;1789078;80;21042;-66
2022/06/16 08:04:48;;;;;;;2.25;1.67;;;;;;;23.14;36.90;96003.40;1756202;82;20102;-66
2022/06/16 08:07:15;;;;;;;2.35;1.87;;;;;;;23.28;36.71;95995.80;1755857;82;21511;-66
2022/06/16 08:09:42;;;;;;;3.52;1.55;;;;;;;23.36;35.84;95996.66;1756162;82;20955;-66
2022/06/16 08:12:11;;;;;;;4.08;1.90;;;;;;;23.41;34.69;95991.39;1786973;80;20983;-66
2022/06/16 08:14:42;;;;;;;3.98;1.62;;;;;;;23.48;35.84;95987.32;1787069;80;21021;-66
2022/06/16 08:17:27;;;;;;;3.47;1.40;;;;;;;23.72;36.61;95996.16;1787363;80;20967;-66
2022/06/16 08:19:55;;;;;;;4.33;1.80;;;;;;;23.90;36.53;96000.88;1786815;80;21007;-66
2022/06/16 08:22:23;;;;;;;6.90;1.77;;;;;;;23.89;33.01;95995.08;1787140;80;21003;-66
2022/06/16 08:24:50;;;;;;;1.87;1.50;;;;;;;24.02;33.79;95995.17;1789892;80;20983;-66
2022/06/16 08:27:21;;;;;;;1.92;1.72;;;;;;;24.12;34.92;96001.69;1795418;80;21002;-66
2022/06/16 08:29:50;;;;;;;5.65;1.60;;;;;;;24.28;34.97;95996.99;1795396;80;21014;-66
2022/06/16 08:32:20;;;;;;;3.60;1.40;;;;;;;24.40;34.83;95993.48;1795388;80;21042;-66
2022/06/16 08:34:48;;;;;;;2.10;1.60;;;;;;;24.46;34.28;95993.58;1795268;80;21018;-66
2022/06/16 08:37:16;;;;;;;3.10;1.80;;;;;;;24.43;34.72;96001.84;1795445;80;21026;-66
2022/06/16 08:39:43;;;;;;;2.98;1.50;;;;;;;24.58;34.50;95999.98;1795379;80;21050;-66
2022/06/16 08:42:24;;;;;;;3.65;1.67;;;;;;;24.73;34.24;96000.28;1795548;80;20959;-66
2022/06/16 08:45:16;;;;;;;4.95;1.72;;;;;;;24.79;33.06;96003.04;1795501;80;21492;-66
2022/06/16 08:48:25;;;;;;;2.05;1.45;;;;;;;24.83;31.48;95995.12;1795287;80;21003;-66
2022/06/16 08:51:20;;;;;;;4.12;1.55;;;;;;;24.95;33.83;95992.07;1795558;80;20978;-66
2022/06/16 08:54:08;;;;;;;1.32;1.22;;;;;;;25.00;32.50;95988.56;1795734;80;21074;-66
2022/06/16 08:56:59;;;;;;;6.20;1.62;;;;;;;25.09;32.83;95989.74;1795573;80;21106;-66
2022/06/16 08:59:34;;;;;;;2.00;1.35;;;;;;;25.03;29.97;95993.75;1795967;80;21003;-66
2022/06/16 09:02:41;;;;;;;2.90;1.40;;;;;;;25.05;31.46;95992.66;1795268;80;20967;-66
2022/06/16 09:05:34;;;;;;;2.95;1.60;;;;;;;25.22;33.28;95995.58;1795647;80;21129;-66
2022/06/16 09:08:24;;;;;;;2.80;1.70;;;;;;;25.24;30.63;95993.61;1795732;80;21038;-66
2022/06/16 09:11:25;;;;;;;4.55;1.65;;;;;;;24.67;31.50;95987.69;1795342;80;20995;-66
2022/06/16 09:14:18;;;;;;;2.22;1.70;;;;;;;24.39;33.07;95990.88;1795702;80;20967;-66
2022/06/16 09:16:54;;;;;;;;;;;;;;;24.52;33.58;95990.48;1797186;80;21018;-66
2022/06/16 09:19:35;;;;;;;1.82;1.65;;;;;;;24.75;33.96;95992.09;1795985;80;20377;-66
2022/06/16 09:22:44;;;;;;;1.92;1.60;;;;;;;24.98;34.26;95988.66;1794975;80;21050;-66
2022/06/16 09:25:31;;;;;;;2.30;1.30;;;;;;;25.21;31.62;95983.52;1792699;79;21016;-66
2022/06/16 09:28:03;;;;;;;3.10;1.52;;;;;;;25.12;31.07;95976.02;1787068;80;21050;-66
2022/06/16 09:30:35;;;;;;;2.85;1.67;;;;;;;25.23;32.35;95968.94;1787383;80;20986;-66
2022/06/16 09:33:13;;;;;;;3.90;1.60;;;;;;;25.44;33.28;95973.28;1787272;80;21015;-66
2022/06/16 09:35:55;;;;;;;3.45;1.92;;;;;;;25.66;32.68;95963.64;1787197;80;20983;-66
2022/06/16 09:38:43;;;;;;;2.02;1.57;;;;;;;25.92;31.71;95963.59;1786228;80;21023;-66
2022/06/16 09:44:08;;;;;;;4.05;1.60;;;;;;;26.21;30.94;95960.09;1787375;80;20972;-66
2022/06/16 09:46:40;;;;;;;1.65;1.52;;;;;;;26.12;29.57;95964.32;1785858;80;21038;-66
2022/06/16 09:49:23;;;;;;;2.72;1.52;;;;;;;25.94;32.00;95967.05;1787541;80;20995;-66
2022/06/16 09:51:58;;;;;;;1.72;1.62;;;;;;;26.16;31.16;95968.54;1787062;80;21005;-66
2022/06/16 09:54:36;;;;;;;3.25;1.67;;;;;;;26.36;31.12;95968.39;1786694;80;21023;-66
2022/06/16 09:57:17;;;;;;;3.33;1.67;;;;;;;26.57;30.38;95958.30;1787028;80;21025;-66
2022/06/16 09:59:58;;;;;;;2.70;1.50;;;;;;;26.81;29.62;95956.88;1787212;80;20964;-66
2022/06/16 10:02:33;;;;;;;1.60;1.50;;;;;;;26.85;29.33;95960.59;1787164;80;21030;-66
2022/06/16 10:04:58;;;;;;;2.70;1.60;;;;;;;26.90;28.85;95961.09;1787014;80;21079;-66
2022/06/16 10:07:30;;;;;;;3.05;1.47;;;;;;;27.00;28.68;95958.53;1787235;80;21003;-66
2022/06/16 10:10:46;;;;;;;2.08;1.55;;;;;;;27.13;29.37;95961.99;1787460;80;21019;-66
2022/06/16 10:13:30;;;;;;;1.85;1.70;;;;;;;27.31;28.46;95964.27;1786932;80;20992;-66
2022/06/16 10:16:11;;;;;;;3.12;1.60;;;;;;;27.39;28.82;95963.16;1787037;80;21078;-66
2022/06/16 10:18:39;;;;;;;6.03;1.60;;;;;;;27.67;28.60;95953.69;1785929;80;21079;-66
2022/06/16 10:21:07;;;;;;;1.85;1.50;;;;;;;27.80;27.36;95957.12;1787096;80;21481;-66
2022/06/16 10:23:48;;;;;;;1.80;1.47;;;;;;;27.83;26.91;95962.31;1787259;80;20991;-66
2022/06/16 10:26:15;;;;;;;2.15;1.70;;;;;;;27.71;26.27;95955.64;1786974;80;21074;-66
2022/06/16 10:29:09;;;;;;;3.08;1.55;;;;;;;27.59;27.26;95952.95;1787354;80;21034;-66
2022/06/16 10:31:45;;;;;;;3.05;1.77;;;;;;;27.70;28.06;95955.28;1755091;80;21073;-66
2022/06/16 10:34:30;;;;;;;5.25;1.70;;;;;;;27.90;27.08;95956.41;1786989;80;21477;-66
2022/06/16 10:37:17;;;;;;;1.77;1.57;;;;;;;27.83;28.16;95958.75;1779361;80;21027;-66
2022/06/16 10:39:54;;;;;;;3.85;1.87;;;;;;;28.06;28.12;95951.42;1786867;80;21490;-66
2022/06/16 10:42:31;;;;;;;1.87;1.60;;;;;;;27.71;28.06;95949.72;1786808;80;21549;-66
2022/06/16 10:45:28;;;;;;;2.42;1.95;;;;;;;27.05;27.56;95957.68;1787221;80;21007;-66
2022/06/16 10:48:09;;;;;;;3.42;1.72;;;;;;;26.59;28.41;95954.49;1786401;80;21003;-67
2022/06/16 10:50:44;;;;;;;4.50;2.15;;;;;;;26.35;28.49;95959.88;1787359;80;20956;-66
2022/06/16 10:53:33;;;;;;;4.92;1.72;;;;;;;26.68;28.71;95955.12;1786663;80;21460;-66
2022/06/16 10:56:18;;;;;;;3.95;1.45;;;;;;;27.16;28.73;95954.12;1787231;80;21007;-66
2022/06/16 10:59:02;;;;;;;4.00;1.90;;;;;;;27.70;27.95;95944.44;1786230;80;21477;-66
2022/06/16 11:01:35;;;;;;;2.12;1.50;;;;;;;27.31;27.12;95940.73;1786703;80;21101;-66
2022/06/16 11:04:16;;;;;;;2.17;1.80;;;;;;;27.44;27.65;95938.41;1787973;80;20955;-66
2022/06/16 11:06:52;;;;;;;2.17;1.90;;;;;;;27.71;27.43;95935.31;1786681;80;20984;-66
2022/06/16 11:09:23;;;;;;;2.67;1.60;;;;;;;27.97;27.64;95928.66;1787159;80;20987;-66
2022/06/16 11:11:58;;;;;;;5.45;2.25;;;;;;;28.03;26.08;95933.55;1787171;80;21019;-66
2022/06/16 11:14:48;;;;;;;2.30;1.50;;;;;;;27.99;27.19;95936.64;1785552;80;20971;-66
2022/06/16 11:17:31;;;;;;;3.52;1.60;;;;;;;28.48;27.59;95932.58;1785507;80;21481;-66
2022/06/16 11:20:06;;;;;;;2.75;1.80;;;;;;;28.80;27.90;95926.23;1787258;80;21054;-66
2022/06/16 11:22:39;;;;;;;2.05;1.92;;;;;;;28.64;28.50;95921.27;1787000;80;20976;-66
2022/06/16 11:25:18;;;;;;;3.77;1.60;;;;;;;28.96;26.90;95919.84;1787082;80;20986;-66
2022/06/16 11:28:12;;;;;;;5.78;1.55;;;;;;;29.20;28.49;95917.36;1786641;80;21034;-66
2022/06/16 11:30:47;;;;;;;9.03;1.77;;;;;;;29.57;28.96;95914.95;1787155;80;20983;-66
2022/06/16 11:36:25;;;;;;;2.60;1.70;;;;;;;30.08;27.53;95907.17;1786660;80;21520;-66
2022/06/16 11:39:20;;;;;;;1.60;1.50;;;;;;;30.23;25.52;95909.48;1787410;80;21002;-66
2022/06/16 11:41:51;;;;;;;2.83;1.77;;;;;;;30.31;26.10;95912.39;1787638;80;21027;-66
2022/06/16 11:44:32;;;;;;;6.37;2.30;;;;;;;30.31;27.03;95912.39;1786960;80;21500;-66
2022/06/16 11:47:27;;;;;;;2.25;1.62;;;;;;;29.78;25.63;95920.34;1785233;80;21529;-66
2022/06/16 11:50:28;;;;;;;2.50;1.60;;;;;;;28.99;25.98;95919.58;1787234;80;20975;-66
2022/06/16 11:53:03;;;;;;;2.20;1.62;;;;;;;28.43;27.04;95917.15;1787079;80;20999;-66
2022/06/16 11:55:41;;;;;;;3.40;1.87;;;;;;;27.85;27.58;95918.81;1786832;80;21565;-66
2022/06/16 11:58:35;;;;;;;4.00;1.98;;;;;;;27.55;30.30;95923.51;1786897;80;21010;-66
2022/06/16 12:01:21;;;;;;;1.82;1.60;;;;;;;27.28;28.05;95908.98;1706285;84;21071;-66
2022/06/16 12:04:08;;;;;;;1.70;1.57;;;;;;;27.19;30.33;95922.78;1705811;84;21064;-66
2022/06/16 12:07:19;;;;;;;2.12;1.80;;;;;;;27.68;30.42;95916.09;1759646;80;20995;-66
2022/06/16 12:10:08;;;;;;;3.52;1.75;;;;;;;27.91;28.96;95910.16;1787237;80;21055;-66
2022/06/16 12:12:55;;;;;;;4.30;2.00;;;;;;;27.60;27.81;95909.94;1787133;80;21019;-66
2022/06/16 12:15:36;;;;;;;2.65;1.70;;;;;;;27.59;28.90;95907.34;1787210;80;20975;-66
2022/06/16 12:18:36;;;;;;;2.25;1.50;;;;;;;28.13;28.72;95904.31;1786968;80;21003;-66
2022/06/16 12:21:41;;;;;;;2.60;1.60;;;;;;;29.01;27.66;95898.58;1787129;80;21460;-66
2022/06/16 12:24:30;;;;;;;2.45;1.72;;;;;;;29.71;26.46;95895.58;1786919;80;21023;-66
2022/06/16 12:27:21;;;;;;;2.45;1.52;;;;;;;30.41;24.56;95888.74;1787095;80;21078;-66
2022/06/16 12:30:17;;;;;;;1.87;1.70;;;;;;;30.85;23.01;95888.33;1787500;80;20987;-66
2022/06/16 12:33:07;;;;;;;2.22;1.42;;;;;;;31.19;23.29;95879.97;1786970;80;21465;-66
2022/06/16 12:35:51;;;;;;;1.60;1.50;;;;;;;30.74;25.23;95894.23;1787091;80;20971;-66
2022/06/16 12:38:35;;;;;;;2.52;1.90;;;;;;;30.84;26.02;95882.00;1786938;80;21477;-67
2022/06/16 12:41:20;;;;;;;3.37;1.72;;;;;;;31.52;23.71;95879.08;1766471;80;21092;-66
2022/06/16 12:44:01;;;;;;;1.70;1.57;;;;;;;31.98;24.51;95873.69;1787019;80;21081;-66